createdAt,value
2023-04-04T00:02:43.749Z,24.3
2023-04-04T00:08:20.774Z,23.7
2023-04-04T00:14:12.863Z,23.6
2023-04-04T00:19:49.108Z,23.4
2023-04-04T00:25:26.488Z,24.1
2023-04-04T00:31:17.839Z,26.4
2023-04-04T00:37:09.513Z,23.8
2023-04-04T00:42:45.462Z,23.7
2023-04-04T00:48:38.262Z,23.6
2023-04-04T00:54:15.090Z,23.4
2023-04-04T01:00:06.483Z,24.8
2023-04-04T01:05:59.156Z,25.6
2023-04-04T01:11:50.352Z,23.8
2023-04-04T01:17:26.426Z,23.7
2023-04-04T01:23:02.259Z,23.6
2023-04-04T01:28:37.749Z,23.3
2023-04-04T01:34:29.945Z,25.5
2023-04-04T01:40:22.985Z,24.3
2023-04-04T01:46:15.513Z,23.8
2023-04-04T01:51:53.972Z,23.7
2023-04-04T01:57:14.924Z,23.4
2023-04-04T02:03:06.841Z,24.1
2023-04-04T02:08:43.511Z,26.4
2023-04-04T02:14:34.513Z,23.8
2023-04-04T02:20:13.465Z,23.8
2023-04-04T02:25:49.835Z,23.6
2023-04-04T02:31:26.003Z,23.4
2023-04-04T02:37:17.702Z,24.6
2023-04-04T02:43:09.696Z,26.3
2023-04-04T02:49:07.108Z,23.8
2023-04-04T02:54:58.673Z,23.7
2023-04-04T03:00:50.835Z,23.6
2023-04-04T03:06:28.253Z,23.3
2023-04-04T03:12:19.252Z,25.5
2023-04-04T03:17:55.896Z,24.2
2023-04-04T03:23:47.639Z,23.8
2023-04-04T03:29:23.332Z,23.7
2023-04-04T03:35:15.316Z,23.4
2023-04-04T03:41:07.273Z,24
2023-04-04T03:46:58.410Z,26.3
2023-04-04T03:52:49.985Z,23.8
2023-04-04T03:58:41.952Z,23.7
2023-04-04T04:04:20.289Z,23.6
2023-04-04T04:10:12.010Z,23.3
2023-04-04T04:16:03.604Z,24.8
2023-04-04T04:21:56.155Z,25.6
2023-04-04T04:27:47.989Z,23.8
2023-04-04T04:33:39.729Z,23.7
2023-04-04T04:39:17.422Z,23.6
2023-04-04T04:45:09.183Z,23.4
2023-04-04T04:51:01.836Z,25.7
2023-04-04T04:56:53.992Z,24.1
2023-04-04T05:02:46.956Z,23.8
2023-04-04T05:08:38.437Z,23.6
2023-04-04T05:14:30.083Z,23.4
2023-04-04T05:20:23.583Z,24.4
2023-04-04T05:26:14.560Z,26.8
2023-04-04T05:32:06.207Z,23.7
2023-04-04T05:37:59.299Z,23.7
2023-04-04T05:43:36.057Z,23.5
2023-04-04T05:49:28.208Z,23.2
2023-04-04T05:55:19.468Z,25.6
2023-04-04T06:01:12.688Z,24.1
2023-04-04T06:07:04.764Z,23.8
2023-04-04T06:13:01.596Z,23.6
2023-04-04T06:18:56.103Z,23.4
2023-04-04T06:24:47.904Z,24.9
2023-04-04T06:30:40.167Z,25.4
2023-04-04T06:36:32.810Z,23.9
2023-04-04T06:42:24.387Z,23.8
2023-04-04T06:48:01.135Z,23.5
2023-04-04T06:53:53.026Z,23.2
2023-04-04T06:59:45.245Z,24.8
2023-04-04T07:05:37.935Z,26.1
2023-04-04T07:11:41.846Z,24.1
2023-04-04T07:17:41.364Z,24.7
2023-04-04T07:23:32.541Z,24.2
2023-04-04T07:29:35.052Z,24.1
2023-04-04T07:35:27.114Z,23.6
2023-04-04T07:41:20.574Z,23.4
2023-04-04T07:47:06.734Z,23.3
2023-04-04T07:52:47.291Z,22.9
2023-04-04T07:58:38.746Z,23.3
2023-04-04T08:04:33.060Z,25.6
2023-04-04T08:10:24.370Z,24.5
2023-04-04T08:16:16.825Z,24
2023-04-04T08:22:08.564Z,24.5
2023-04-04T08:28:11.663Z,24.1
2023-04-04T08:34:18.584Z,23.8
2023-04-04T08:40:09.939Z,23.6
2023-04-04T08:46:02.032Z,23.1
2023-04-04T08:51:54.818Z,23
2023-04-04T08:57:46.779Z,22.6
2023-04-04T09:03:42.036Z,24.3
2023-04-04T09:09:48.732Z,26.4
2023-04-04T09:15:52.290Z,23.6
2023-04-04T09:21:44.921Z,24.3
2023-04-04T09:27:44.027Z,24
2023-04-04T09:33:22.438Z,23.8
2023-04-04T09:39:15.393Z,23.3
2023-04-04T09:45:08.817Z,23.2
2023-04-04T09:51:21.263Z,22.6
2023-04-04T09:57:33.867Z,24.4
2023-04-04T10:03:42.125Z,26.6
2023-04-04T10:09:45.214Z,23.5
2023-04-04T10:15:51.527Z,24.3
2023-04-04T10:21:54.597Z,23.8
2023-04-04T10:27:47.981Z,23.7
2023-04-04T10:33:54.051Z,23.1
2023-04-04T10:39:46.446Z,22.9
2023-04-04T10:45:53.527Z,22.8
2023-04-04T10:51:29.831Z,24.9
2023-04-04T10:57:31.780Z,26.8
2023-04-04T11:03:24.740Z,23.9
2023-04-04T11:09:23.554Z,24.5
2023-04-04T11:15:41.196Z,23.9
2023-04-04T11:21:50.254Z,23.8
2023-04-04T11:27:42.008Z,23.3
2023-04-04T11:33:46.655Z,23.1
2023-04-04T11:39:40.309Z,23.1
2023-04-04T11:45:31.733Z,25.2
2023-04-04T11:51:08.214Z,25.5
2023-04-04T11:57:01.430Z,23.9
2023-04-04T12:03:01.879Z,24.5
2023-04-04T12:08:55.165Z,23.9
2023-04-04T12:14:46.849Z,23.8
2023-04-04T12:20:52.425Z,23.4
2023-04-04T12:26:46.764Z,23
2023-04-04T12:32:38.997Z,23
2023-04-04T12:38:31.174Z,25.1
2023-04-04T12:44:23.184Z,26.3
2023-04-04T12:50:15.437Z,23.6
2023-04-04T12:56:31.972Z,24.3
2023-04-04T13:02:27.610Z,23.8
2023-04-04T13:08:19.718Z,23.6
2023-04-04T13:13:56.304Z,23.1
2023-04-04T13:19:51.005Z,23
2023-04-04T13:25:43.111Z,22.8
2023-04-04T13:31:35.233Z,24.6
2023-04-04T13:37:27.938Z,26.5
2023-04-04T13:43:19.492Z,23.9
2023-04-04T13:49:11.888Z,24.4
2023-04-04T13:55:05.752Z,24
2023-04-04T14:01:21.170Z,23.8
2023-04-04T14:07:33.545Z,23.3
2023-04-04T14:13:25.834Z,23.1
2023-04-04T14:19:19.762Z,22.6
2023-04-04T14:25:11.805Z,24.4
2023-04-04T14:30:48.585Z,26.3
2023-04-04T14:36:42.518Z,23.9
2023-04-04T14:42:35.895Z,24.3
2023-04-04T14:48:28.889Z,24.1
2023-04-04T14:54:20.849Z,23.9
2023-04-04T15:00:30.784Z,23.4
2023-04-04T15:06:25.967Z,23.2
2023-04-04T15:12:04.246Z,22.6
2023-04-04T15:17:40.612Z,24.1
2023-04-04T15:23:33.052Z,25.9
2023-04-04T15:29:26.725Z,24.3
2023-04-04T15:35:21.520Z,23.3
2023-04-04T15:41:19.485Z,22.9
2023-04-04T15:46:55.451Z,22.6
2023-04-04T15:52:47.454Z,22.3
2023-04-04T15:58:40.293Z,22.1
2023-04-04T16:04:33.044Z,21.8
2023-04-04T16:10:24.471Z,21.6
2023-04-04T16:16:18.881Z,21.4
2023-04-04T16:22:12.332Z,21.3
2023-04-04T16:28:03.462Z,21.3
2023-04-04T16:33:41.699Z,21.2
2023-04-04T16:39:20.181Z,21
2023-04-04T16:45:17.276Z,20.8
2023-04-04T16:51:14.523Z,20.6
2023-04-04T16:57:09.346Z,20.4
2023-04-04T17:03:06.088Z,20.3
2023-04-04T17:09:07.070Z,20.4
2023-04-04T17:15:07.217Z,20.6
2023-04-04T17:20:52.211Z,20.9
2023-04-04T17:26:38.003Z,21.3
2023-04-04T17:32:38.764Z,21.6
2023-04-04T17:38:22.013Z,21.9
2023-04-04T17:44:06.911Z,22.3
2023-04-04T17:49:50.616Z,22.4
2023-04-04T17:55:36.682Z,22.5
2023-04-04T18:01:41.310Z,22.5
2023-04-04T18:07:37.864Z,22.4
2023-04-04T18:13:37.620Z,22.2
2023-04-04T18:19:46.154Z,22.2
2023-04-04T18:25:59.002Z,22.4
2023-04-04T18:31:59.052Z,22.6
2023-04-04T18:37:42.186Z,22.9
2023-04-04T18:43:42.565Z,23.1
2023-04-04T18:49:36.980Z,23.3
2023-04-04T18:55:38.079Z,23.3
2023-04-04T19:01:39.658Z,23.1
2023-04-04T19:07:43.226Z,22.8
2023-04-04T19:13:45.198Z,22.5
2023-04-04T19:19:46.035Z,22.3
2023-04-04T19:25:30.909Z,22
2023-04-04T19:31:32.569Z,21.8
2023-04-04T19:37:32.809Z,21.6
2023-04-04T19:43:33.034Z,21.3
2023-04-04T19:49:35.894Z,21
2023-04-04T19:55:37.093Z,20.7
2023-04-04T20:01:44.843Z,20.4
2023-04-04T20:07:49.493Z,20.1
2023-04-04T20:13:48.679Z,19.8
2023-04-04T20:19:49.381Z,19.5
2023-04-04T20:25:36.037Z,19.3
2023-04-04T20:31:34.914Z,27.8
2023-04-04T20:37:36.988Z,28
2023-04-04T20:43:37.138Z,27.8
2023-04-04T20:49:38.243Z,27.2
2023-04-04T20:55:22.691Z,26.6
2023-04-04T21:01:25.920Z,25.9
2023-04-04T21:07:26.672Z,25.6
2023-04-04T21:13:09.887Z,25.6
2023-04-04T21:19:09.093Z,25
2023-04-04T21:25:10.473Z,25.1
2023-04-04T21:31:09.716Z,24.4
2023-04-04T21:37:08.265Z,24.6
2023-04-04T21:43:02.820Z,24
2023-04-04T21:48:56.660Z,24.1
2023-04-04T21:54:50.597Z,24.1
2023-04-04T22:00:43.306Z,23.7
2023-04-04T22:06:28.952Z,23.9
2023-04-04T22:12:23.696Z,23.4
2023-04-04T22:18:15.796Z,23.6
2023-04-04T22:24:07.113Z,23
2023-04-04T22:29:58.435Z,23.3
2023-04-04T22:35:50.206Z,23.3
2023-04-04T22:41:42.002Z,25.7
2023-04-04T22:47:18.718Z,25.3
2023-04-04T22:53:11.529Z,24.7
2023-04-04T22:59:03.059Z,24.8
2023-04-04T23:04:55.783Z,24.5
2023-04-04T23:10:47.685Z,24
2023-04-04T23:16:24.395Z,23.9
2023-04-04T23:22:16.129Z,23.4
2023-04-04T23:28:07.805Z,23.4
2023-04-04T23:33:59.534Z,22.9
2023-04-04T23:39:51.052Z,24.7
2023-04-04T23:45:43.052Z,26.6
2023-04-04T23:51:04.302Z,24.4
2023-04-04T23:56:56.259Z,24.8
